F/V Berriz Patxiku — ECES — position and weather

sailwx.info

Track history (hours):
 
Tides and Currents Weather Stations Pressure Air Temp Water Temp Dewpoint Dewpoint Depression Visibility Wind Speed Wind Dir Waves Ship Positions

F/V Berriz Patxiku

Last reported at 2014-Oct-16 10:07 UTC. Time now 2014-Oct-20 11:27 UTC.
Position N 44°16' W 001°51'.

Length 30 m.

Type: Fishing. MMSI: 224106260.

Date/timePositionNaut miles runAvg speedWind from/ knotsBaromVisibWave heightAir tempDewpointWater temp
2014-Oct-16 10:07N 44°16' W 001°51'610.5
2014-Oct-16 09:33N 44°22' W 001°49'1110.8
2014-Oct-16 08:34N 44°33' W 001°45'1110.7
2014-Oct-16 07:33N 44°43' W 001°42'1010.0
2014-Oct-16 06:32N 44°53' W 001°38'20 9.6
2014-Oct-16 04:28N 45°12' W 001°31'3 1.1
2014-Oct-16 01:17N 45°09' W 001°31'3 0.8
2014-Oct-15 22:04N 45°06' W 001°30'13 3.8
2014-Oct-15 18:33N 44°53' W 001°33'10 9.9
2014-Oct-15 17:34N 44°43' W 001°35'9 8.8
2014-Oct-15 16:33N 44°35' W 001°38'9 8.9
2014-Oct-15 15:33N 44°26' W 001°42'40 1.5
2014-Oct-14 13:18N 43°49' W 002°00'2310.7
2014-Oct-14 11:09N 44°11' W 001°52'6 9.9
2014-Oct-14 10:33N 44°17' W 001°50'1010.4
2014-Oct-14 09:34N 44°27' W 001°46'1110.6
2014-Oct-14 08:33N 44°37' W 001°42'1110.7
2014-Oct-14 07:33N 44°47' W 001°38'1010.3
2014-Oct-14 06:33N 44°57' W 001°34'4 3.7
2014-Oct-14 05:33N 45°01' W 001°32'1 0.6
2014-Oct-14 04:33N 44°60' W 001°32'2 1.8
2014-Oct-14 03:33N 44°58' W 001°31'1 1.0
2014-Oct-14 02:21N 44°57' W 001°31'4 5.1
2014-Oct-14 01:33N 44°53' W 001°32'4 3.8
2014-Oct-14 00:33N 44°49' W 001°32'2 1.9
2014-Oct-13 23:33N 44°47' W 001°30'3 3.2
2014-Oct-13 22:33N 44°49' W 001°27'3 1.3
2014-Oct-13 20:34N 44°52' W 001°28'7 7.1
2014-Oct-13 19:33N 44°45' W 001°29'6 5.8
2014-Oct-13 18:34N 44°39' W 001°32'9 8.7
2014-Oct-13 17:33N 44°31' W 001°37'10 8.6
2014-Oct-13 16:25N 44°22' W 001°41'  
2014-Oct-10 09:07N 44°20' W 001°44'610.1
2014-Oct-10 08:33N 44°25' W 001°42'1010.0
2014-Oct-10 07:33N 44°35' W 001°37'1010.2
2014-Oct-10 06:33N 44°44' W 001°33'3 3.0
2014-Oct-10 05:33N 44°47' W 001°32'0 0.3
2014-Oct-10 04:33N 44°48' W 001°32'1 0.8
2014-Oct-10 03:33N 44°48' W 001°31'1 0.9
2014-Oct-10 02:33N 44°47' W 001°30'0 0.3
2014-Oct-10 01:33N 44°46' W 001°30'6 5.6
2014-Oct-10 00:33N 44°41' W 001°32'1010.4
2014-Oct-09 23:33N 44°31' W 001°34'4 0.2
2014-Oct-09 05:33N 44°30' W 001°28'3 2.7
2014-Oct-09 04:33N 44°32' W 001°27'1 0.9
2014-Oct-09 03:33N 44°32' W 001°26'1 1.1
2014-Oct-09 02:34N 44°31' W 001°27'2 1.7
2014-Oct-09 01:33N 44°30' W 001°26'0 0.5
2014-Oct-09 00:33N 44°30' W 001°26'3 3.2
2014-Oct-08 23:32N 44°27' W 001°25'2 2.4
2014-Oct-08 22:34N 44°25' W 001°26'1 0.7
2014-Oct-08 21:33N 44°24' W 001°26'8 3.9
2014-Oct-08 19:33N 44°17' W 001°31'12 6.0
2014-Oct-08 17:33N 44°05' W 001°34'20 9.8
2014-Oct-08 15:32N 43°48' W 001°48'35 6.6
2014-Oct-08 10:18N 43°18' W 002°12'12 2.0
2014-Oct-08 04:19N 43°25' W 001°59'5 0.5
2014-Oct-07 19:15N 43°27' W 001°53'2 2.8
2014-Oct-07 18:33N 43°28' W 001°50'8 0.3
2014-Oct-06 18:29N 43°23' W 001°60'1 0.6
2014-Oct-06 17:33N 43°24' W 002°00'4 0.9
2014-Oct-06 13:16N 43°25' W 002°06'  
Track history (hours):
 
Tides and Currents Weather Stations Pressure Air Temp Water Temp Dewpoint Dewpoint Depression Visibility Wind Speed Wind Dir Waves Ship Positions

F/V Berriz Patxiku

Last reported at 2014-Oct-16 10:07 UTC. Time now 2014-Oct-20 11:27 UTC.
Position N 44°16' W 001°51'.

Length 30 m.

Type: Fishing. MMSI: 224106260.

Date/timePositionNaut miles runAvg speedWind from/ knotsBaromVisibWave heightAir tempDewpointWater temp
2014-Oct-16 10:07N 44°16' W 001°51'610.5
2014-Oct-16 09:33N 44°22' W 001°49'1110.8
2014-Oct-16 08:34N 44°33' W 001°45'1110.7
2014-Oct-16 07:33N 44°43' W 001°42'1010.0
2014-Oct-16 06:32N 44°53' W 001°38'20 9.6
2014-Oct-16 04:28N 45°12' W 001°31'3 1.1
2014-Oct-16 01:17N 45°09' W 001°31'3 0.8
2014-Oct-15 22:04N 45°06' W 001°30'13 3.8
2014-Oct-15 18:33N 44°53' W 001°33'10 9.9
2014-Oct-15 17:34N 44°43' W 001°35'9 8.8
2014-Oct-15 16:33N 44°35' W 001°38'9 8.9
2014-Oct-15 15:33N 44°26' W 001°42'40 1.5
2014-Oct-14 13:18N 43°49' W 002°00'2310.7
2014-Oct-14 11:09N 44°11' W 001°52'6 9.9
2014-Oct-14 10:33N 44°17' W 001°50'1010.4
2014-Oct-14 09:34N 44°27' W 001°46'1110.6
2014-Oct-14 08:33N 44°37' W 001°42'1110.7
2014-Oct-14 07:33N 44°47' W 001°38'1010.3
2014-Oct-14 06:33N 44°57' W 001°34'4 3.7
2014-Oct-14 05:33N 45°01' W 001°32'1 0.6
2014-Oct-14 04:33N 44°60' W 001°32'2 1.8
2014-Oct-14 03:33N 44°58' W 001°31'1 1.0
2014-Oct-14 02:21N 44°57' W 001°31'4 5.1
2014-Oct-14 01:33N 44°53' W 001°32'4 3.8
2014-Oct-14 00:33N 44°49' W 001°32'2 1.9
2014-Oct-13 23:33N 44°47' W 001°30'3 3.2
2014-Oct-13 22:33N 44°49' W 001°27'3 1.3
2014-Oct-13 20:34N 44°52' W 001°28'7 7.1
2014-Oct-13 19:33N 44°45' W 001°29'6 5.8
2014-Oct-13 18:34N 44°39' W 001°32'9 8.7
2014-Oct-13 17:33N 44°31' W 001°37'10 8.6
2014-Oct-13 16:25N 44°22' W 001°41'  
2014-Oct-10 09:07N 44°20' W 001°44'610.1
2014-Oct-10 08:33N 44°25' W 001°42'1010.0
2014-Oct-10 07:33N 44°35' W 001°37'1010.2
2014-Oct-10 06:33N 44°44' W 001°33'3 3.0
2014-Oct-10 05:33N 44°47' W 001°32'0 0.3
2014-Oct-10 04:33N 44°48' W 001°32'1 0.8
2014-Oct-10 03:33N 44°48' W 001°31'1 0.9
2014-Oct-10 02:33N 44°47' W 001°30'0 0.3
2014-Oct-10 01:33N 44°46' W 001°30'6 5.6
2014-Oct-10 00:33N 44°41' W 001°32'1010.4
2014-Oct-09 23:33N 44°31' W 001°34'4 0.2
2014-Oct-09 05:33N 44°30' W 001°28'3 2.7
2014-Oct-09 04:33N 44°32' W 001°27'1 0.9
2014-Oct-09 03:33N 44°32' W 001°26'1 1.1
2014-Oct-09 02:34N 44°31' W 001°27'2 1.7
2014-Oct-09 01:33N 44°30' W 001°26'0 0.5
2014-Oct-09 00:33N 44°30' W 001°26'3 3.2
2014-Oct-08 23:32N 44°27' W 001°25'2 2.4
2014-Oct-08 22:34N 44°25' W 001°26'1 0.7
2014-Oct-08 21:33N 44°24' W 001°26'8 3.9
2014-Oct-08 19:33N 44°17' W 001°31'12 6.0
2014-Oct-08 17:33N 44°05' W 001°34'20 9.8
2014-Oct-08 15:32N 43°48' W 001°48'35 6.6
2014-Oct-08 10:18N 43°18' W 002°12'12 2.0
2014-Oct-08 04:19N 43°25' W 001°59'5 0.5
2014-Oct-07 19:15N 43°27' W 001°53'2 2.8
2014-Oct-07 18:33N 43°28' W 001°50'8 0.3
2014-Oct-06 18:29N 43°23' W 001°60'1 0.6
2014-Oct-06 17:33N 43°24' W 002°00'4 0.9
2014-Oct-06 13:16N 43°25' W 002°06'  

Dump ship's entire track history